sensor_id;sensor_type;location;lat;lon;timestamp;pressure;altitude;pressure_sealevel;temperature;humidity
70127;BME280;57491;42.694;23.314;2022-07-29T00:01:15;95260.53;;;21.32;64.88
70127;BME280;57491;42.694;23.314;2022-07-29T00:03:43;95243.28;;;21.13;64.50
70127;BME280;57491;42.694;23.314;2022-07-29T00:06:10;95269.19;;;21.27;64.25
70127;BME280;57491;42.694;23.314;2022-07-29T00:08:37;95280.16;;;21.36;64.34
70127;BME280;57491;42.694;23.314;2022-07-29T00:11:04;95281.06;;;21.42;64.10
70127;BME280;57491;42.694;23.314;2022-07-29T00:13:33;95279.84;;;21.49;63.68
70127;BME280;57491;42.694;23.314;2022-07-29T00:16:00;95280.81;;;21.60;63.13
70127;BME280;57491;42.694;23.314;2022-07-29T00:18:27;95274.53;;;21.66;63.13
70127;BME280;57491;42.694;23.314;2022-07-29T00:20:54;95288.72;;;21.76;63.18
70127;BME280;57491;42.694;23.314;2022-07-29T00:23:22;95264.81;;;21.71;63.25
70127;BME280;57491;42.694;23.314;2022-07-29T00:25:49;95277.72;;;21.85;63.36
70127;BME280;57491;42.694;23.314;2022-07-29T00:28:16;95271.44;;;21.91;63.44
70127;BME280;57491;42.694;23.314;2022-07-29T00:30:45;95275.88;;;22.02;63.36
70127;BME280;57491;42.694;23.314;2022-07-29T00:33:12;95246.53;;;21.87;62.95
70127;BME280;57491;42.694;23.314;2022-07-29T00:35:39;95267.44;;;22.05;62.99
70127;BME280;57491;42.694;23.314;2022-07-29T00:38:12;95250.78;;;21.88;62.78
70127;BME280;57491;42.694;23.314;2022-07-29T00:40:41;95283.31;;;22.05;62.58
70127;BME280;57491;42.694;23.314;2022-07-29T00:43:08;95280.19;;;22.08;62.38
70127;BME280;57491;42.694;23.314;2022-07-29T00:45:35;95285.78;;;22.11;62.53
70127;BME280;57491;42.694;23.314;2022-07-29T00:48:04;95282.53;;;22.04;63.28
70127;BME280;57491;42.694;23.314;2022-07-29T00:50:32;95281.16;;;21.85;63.60
70127;BME280;57491;42.694;23.314;2022-07-29T00:53:00;95291.44;;;21.81;63.95
70127;BME280;57491;42.694;23.314;2022-07-29T00:55:27;95288.91;;;21.70;64.19
70127;BME280;57491;42.694;23.314;2022-07-29T00:57:58;95298.34;;;21.66;64.03
70127;BME280;57491;42.694;23.314;2022-07-29T01:00:27;95281.03;;;21.58;64.29
70127;BME280;57491;42.694;23.314;2022-07-29T01:02:54;95280.97;;;21.53;64.29
70127;BME280;57491;42.694;23.314;2022-07-29T01:05:24;95269.50;;;21.31;64.34
70127;BME280;57491;42.694;23.314;2022-07-29T01:07:53;95279.44;;;21.41;64.72
70127;BME280;57491;42.694;23.314;2022-07-29T01:10:21;95268.25;;;21.33;64.86
70127;BME280;57491;42.694;23.314;2022-07-29T01:12:50;95269.81;;;21.34;64.65
70127;BME280;57491;42.694;23.314;2022-07-29T01:15:18;95269.50;;;21.31;64.96
70127;BME280;57491;42.694;23.314;2022-07-29T01:17:50;95266.53;;;21.27;65.00
70127;BME280;57491;42.694;23.314;2022-07-29T01:20:25;95246.75;;;21.13;64.74
70127;BME280;57491;42.694;23.314;2022-07-29T01:23:21;95250.81;;;21.21;64.93
70127;BME280;57491;42.694;23.314;2022-07-29T01:26:23;95260.69;;;21.25;64.95
70127;BME280;57491;42.694;23.314;2022-07-29T01:29:08;95260.22;;;21.28;64.93
70127;BME280;57491;42.694;23.314;2022-07-29T01:31:45;95236.97;;;21.14;65.13
70127;BME280;57491;42.694;23.314;2022-07-29T01:34:18;95246.91;;;21.23;65.03
70127;BME280;57491;42.694;23.314;2022-07-29T01:36:51;95248.13;;;21.32;64.88
70127;BME280;57491;42.694;23.314;2022-07-29T01:39:27;95248.34;;;21.31;64.80
70127;BME280;57491;42.694;23.314;2022-07-29T01:41:59;95243.56;;;21.28;64.62
70127;BME280;57491;42.694;23.314;2022-07-29T01:44:35;95250.44;;;21.29;64.65
70127;BME280;57491;42.694;23.314;2022-07-29T01:47:10;95256.84;;;21.33;64.61
70127;BME280;57491;42.694;23.314;2022-07-29T01:49:42;95256.38;;;21.36;64.74
70127;BME280;57491;42.694;23.314;2022-07-29T01:52:15;95252.19;;;21.40;64.68
70127;BME280;57491;42.694;23.314;2022-07-29T01:54:50;95253.00;;;21.41;64.72
70127;BME280;57491;42.694;23.314;2022-07-29T01:57:21;95244.53;;;21.39;64.63
70127;BME280;57491;42.694;23.314;2022-07-29T01:59:54;95248.19;;;21.38;64.61
70127;BME280;57491;42.694;23.314;2022-07-29T02:02:23;95220.69;;;21.22;64.61
70127;BME280;57491;42.694;23.314;2022-07-29T02:04:53;95245.06;;;21.24;65.11
70127;BME280;57491;42.694;23.314;2022-07-29T02:07:21;95246.03;;;21.18;65.58
70127;BME280;57491;42.694;23.314;2022-07-29T02:09:51;95239.03;;;21.12;65.89
70127;BME280;57491;42.694;23.314;2022-07-29T02:12:20;95235.97;;;21.03;66.36
70127;BME280;57491;42.694;23.314;2022-07-29T02:14:51;95229.09;;;21.02;66.16
70127;BME280;57491;42.694;23.314;2022-07-29T02:17:22;95238.38;;;21.05;66.42
70127;BME280;57491;42.694;23.314;2022-07-29T02:19:51;95244.63;;;20.99;66.39
70127;BME280;57491;42.694;23.314;2022-07-29T02:22:19;95224.44;;;20.92;66.71
70127;BME280;57491;42.694;23.314;2022-07-29T02:24:47;95235.66;;;21.00;66.70
70127;BME280;57491;42.694;23.314;2022-07-29T02:27:17;95225.06;;;21.00;66.56
70127;BME280;57491;42.694;23.314;2022-07-29T02:29:46;95217.72;;;21.02;66.33
70127;BME280;57491;42.694;23.314;2022-07-29T02:32:15;95233.53;;;21.13;66.04
70127;BME280;57491;42.694;23.314;2022-07-29T02:34:44;95211.72;;;21.06;66.36
70127;BME280;57491;42.694;23.314;2022-07-29T02:37:14;95213.50;;;21.17;66.24
70127;BME280;57491;42.694;23.314;2022-07-29T02:39:44;95210.22;;;21.27;65.67
70127;BME280;57491;42.694;23.314;2022-07-29T02:42:13;95219.09;;;21.21;65.85
70127;BME280;57491;42.694;23.314;2022-07-29T02:44:41;95191.03;;;21.03;66.03
70127;BME280;57491;42.694;23.314;2022-07-29T02:47:13;95196.00;;;21.00;66.43
70127;BME280;57491;42.694;23.314;2022-07-29T02:49:48;95215.25;;;21.12;66.40
70127;BME280;57491;42.694;23.314;2022-07-29T02:52:22;95215.34;;;21.17;66.33
70127;BME280;57491;42.694;23.314;2022-07-29T02:54:55;95222.31;;;21.23;66.41
70127;BME280;57491;42.694;23.314;2022-07-29T02:57:29;95212.34;;;21.30;66.33
70127;BME280;57491;42.694;23.314;2022-07-29T03:00:02;95201.25;;;21.28;65.95
70127;BME280;57491;42.694;23.314;2022-07-29T03:02:33;95209.56;;;21.36;65.98
70127;BME280;57491;42.694;23.314;2022-07-29T03:05:04;95210.84;;;21.34;66.43
70127;BME280;57491;42.694;23.314;2022-07-29T03:07:34;95203.06;;;21.27;66.67
70127;BME280;57491;42.694;23.314;2022-07-29T03:10:03;95217.41;;;21.31;66.50
70127;BME280;57491;42.694;23.314;2022-07-29T03:12:31;95216.63;;;21.31;66.54
70127;BME280;57491;42.694;23.314;2022-07-29T03:14:59;95215.00;;;21.30;66.65
70127;BME280;57491;42.694;23.314;2022-07-29T03:17:29;95215.72;;;21.25;66.47
70127;BME280;57491;42.694;23.314;2022-07-29T03:20:08;95219.66;;;21.23;66.62
70127;BME280;57491;42.694;23.314;2022-07-29T03:22:39;95223.25;;;21.17;66.41
70127;BME280;57491;42.694;23.314;2022-07-29T03:25:10;95215.97;;;21.07;66.39
70127;BME280;57491;42.694;23.314;2022-07-29T03:27:37;95221.72;;;21.04;66.71
70127;BME280;57491;42.694;23.314;2022-07-29T03:30:06;95217.47;;;21.03;66.69
70127;BME280;57491;42.694;23.314;2022-07-29T03:32:33;95206.09;;;20.86;67.17
70127;BME280;57491;42.694;23.314;2022-07-29T03:35:01;95224.44;;;20.92;67.15
70127;BME280;57491;42.694;23.314;2022-07-29T03:37:29;95225.56;;;20.97;67.08
70127;BME280;57491;42.694;23.314;2022-07-29T03:39:57;95227.63;;;20.94;67.16
70127;BME280;57491;42.694;23.314;2022-07-29T03:42:27;95234.34;;;20.85;67.52
70127;BME280;57491;42.694;23.314;2022-07-29T03:44:55;95231.63;;;20.80;67.79
70127;BME280;57491;42.694;23.314;2022-07-29T03:47:26;95233.72;;;20.78;67.64
70127;BME280;57491;42.694;23.314;2022-07-29T03:49:58;95217.97;;;20.55;68.14
70127;BME280;57491;42.694;23.314;2022-07-29T03:52:26;95229.53;;;20.66;68.19
70127;BME280;57491;42.694;23.314;2022-07-29T03:54:55;95234.09;;;20.70;68.03
70127;BME280;57491;42.694;23.314;2022-07-29T03:57:26;95236.13;;;20.80;67.69
70127;BME280;57491;42.694;23.314;2022-07-29T03:59:55;95242.38;;;20.90;67.45
70127;BME280;57491;42.694;23.314;2022-07-29T04:02:23;95244.16;;;21.02;67.21
70127;BME280;57491;42.694;23.314;2022-07-29T04:04:51;95244.97;;;21.02;67.30
70127;BME280;57491;42.694;23.314;2022-07-29T04:07:18;95244.34;;;21.12;67.29
70127;BME280;57491;42.694;23.314;2022-07-29T04:09:45;95243.88;;;21.15;67.10
70127;BME280;57491;42.694;23.314;2022-07-29T04:12:14;95246.13;;;21.23;67.13
70127;BME280;57491;42.694;23.314;2022-07-29T04:14:41;95238.66;;;21.36;66.47
70127;BME280;57491;42.694;23.314;2022-07-29T04:17:08;95236.63;;;21.44;66.30
70127;BME280;57491;42.694;23.314;2022-07-29T04:19:36;95232.78;;;21.51;65.92
70127;BME280;57491;42.694;23.314;2022-07-29T04:22:03;95224.38;;;21.54;65.28
70127;BME280;57491;42.694;23.314;2022-07-29T04:24:30;95232.59;;;21.74;63.61
70127;BME280;57491;42.694;23.314;2022-07-29T04:26:57;95234.19;;;21.75;63.76
70127;BME280;57491;42.694;23.314;2022-07-29T04:29:25;95229.88;;;21.69;63.17
70127;BME280;57491;42.694;23.314;2022-07-29T04:31:53;95234.81;;;21.83;63.11
70127;BME280;57491;42.694;23.314;2022-07-29T04:34:20;95246.03;;;21.90;62.96
70127;BME280;57491;42.694;23.314;2022-07-29T04:36:47;95250.97;;;22.03;62.61
70127;BME280;57491;42.694;23.314;2022-07-29T04:39:14;95234.25;;;22.19;62.23
70127;BME280;57491;42.694;23.314;2022-07-29T04:44:34;95238.56;;;22.47;60.96
70127;BME280;57491;42.694;23.314;2022-07-29T04:47:02;95234.41;;;22.56;61.01
70127;BME280;57491;42.694;23.314;2022-07-29T04:49:29;95252.44;;;22.81;60.60
70127;BME280;57491;42.694;23.314;2022-07-29T04:51:56;95256.75;;;22.87;59.73
70127;BME280;57491;42.694;23.314;2022-07-29T04:54:23;95250.53;;;23.03;59.25
70127;BME280;57491;42.694;23.314;2022-07-29T04:56:50;95254.59;;;23.16;58.54
70127;BME280;57491;42.694;23.314;2022-07-29T04:59:17;95239.53;;;23.21;58.08
70127;BME280;57491;42.694;23.314;2022-07-29T05:01:46;95243.88;;;23.32;57.24
70127;BME280;57491;42.694;23.314;2022-07-29T05:04:13;95256.97;;;23.44;57.36
70127;BME280;57491;42.694;23.314;2022-07-29T05:06:40;95258.41;;;23.56;56.27
70127;BME280;57491;42.694;23.314;2022-07-29T05:09:07;95257.38;;;23.63;56.06
70127;BME280;57491;42.694;23.314;2022-07-29T05:11:34;95259.78;;;23.64;56.24
70127;BME280;57491;42.694;23.314;2022-07-29T05:14:01;95259.13;;;23.89;55.42
70127;BME280;57491;42.694;23.314;2022-07-29T05:16:39;95248.44;;;23.79;55.02
70127;BME280;57491;42.694;23.314;2022-07-29T05:19:13;95259.97;;;23.94;54.82
70127;BME280;57491;42.694;23.314;2022-07-29T05:21:59;95266.63;;;23.97;54.38
70127;BME280;57491;42.694;23.314;2022-07-29T05:24:27;95260.16;;;23.83;54.83
70127;BME280;57491;42.694;23.314;2022-07-29T05:26:54;95237.81;;;23.42;55.33
70127;BME280;57491;42.694;23.314;2022-07-29T05:29:22;95259.94;;;23.47;56.05
70127;BME280;57491;42.694;23.314;2022-07-29T05:32:07;95258.59;;;23.45;56.19
70127;BME280;57491;42.694;23.314;2022-07-29T05:34:36;95260.75;;;23.53;55.84
70127;BME280;57491;42.694;23.314;2022-07-29T05:37:04;95257.22;;;23.79;54.83
70127;BME280;57491;42.694;23.314;2022-07-29T05:39:31;95254.16;;;24.02;53.73
70127;BME280;57491;42.694;23.314;2022-07-29T05:41:58;95232.50;;;24.21;52.87
70127;BME280;57491;42.694;23.314;2022-07-29T05:44:25;95263.19;;;24.64;52.07
70127;BME280;57491;42.694;23.314;2022-07-29T05:46:52;95266.16;;;24.82;51.50
70127;BME280;57491;42.694;23.314;2022-07-29T05:49:19;95260.63;;;24.89;51.39
70127;BME280;57491;42.694;23.314;2022-07-29T05:51:48;95270.75;;;24.97;50.92
70127;BME280;57491;42.694;23.314;2022-07-29T05:54:16;95270.50;;;25.19;51.05
70127;BME280;57491;42.694;23.314;2022-07-29T05:56:43;95267.06;;;25.39;50.35
70127;BME280;57491;42.694;23.314;2022-07-29T05:59:10;95272.41;;;25.44;49.70
70127;BME280;57491;42.694;23.314;2022-07-29T06:01:37;95274.53;;;25.62;49.47
70127;BME280;57491;42.694;23.314;2022-07-29T06:04:05;95271.84;;;25.72;48.85
70127;BME280;57491;42.694;23.314;2022-07-29T06:06:33;95250.53;;;25.72;48.63
70127;BME280;57491;42.694;23.314;2022-07-29T06:09:02;95269.38;;;26.16;47.84
70127;BME280;57491;42.694;23.314;2022-07-29T06:11:30;95260.84;;;26.24;46.85
70127;BME280;57491;42.694;23.314;2022-07-29T06:13:57;95276.56;;;26.15;47.41
70127;BME280;57491;42.694;23.314;2022-07-29T06:16:24;95279.50;;;26.29;46.97
70127;BME280;57491;42.694;23.314;2022-07-29T06:18:51;95278.56;;;26.59;46.80
70127;BME280;57491;42.694;23.314;2022-07-29T06:21:18;95277.66;;;26.79;45.85
70127;BME280;57491;42.694;23.314;2022-07-29T06:23:46;95275.72;;;26.94;45.89
70127;BME280;57491;42.694;23.314;2022-07-29T06:26:15;95280.13;;;26.70;46.20
70127;BME280;57491;42.694;23.314;2022-07-29T06:28:42;95260.31;;;26.86;45.79
70127;BME280;57491;42.694;23.314;2022-07-29T06:31:09;95268.72;;;27.08;45.04
70127;BME280;57491;42.694;23.314;2022-07-29T06:33:36;95270.75;;;27.22;45.64
70127;BME280;57491;42.694;23.314;2022-07-29T06:36:04;95267.38;;;27.45;44.43
70127;BME280;57491;42.694;23.314;2022-07-29T06:38:32;95263.69;;;27.70;44.12
70127;BME280;57491;42.694;23.314;2022-07-29T06:40:59;95265.19;;;27.52;44.19
70127;BME280;57491;42.694;23.314;2022-07-29T06:43:31;95268.63;;;26.75;45.67
70127;BME280;57491;42.694;23.314;2022-07-29T06:46:00;95257.63;;;26.27;46.58
70127;BME280;57491;42.694;23.314;2022-07-29T06:48:28;95261.88;;;26.38;46.32
70127;BME280;57491;42.694;23.314;2022-07-29T06:50:55;95247.38;;;26.59;46.46
70127;BME280;57491;42.694;23.314;2022-07-29T06:53:23;95268.13;;;27.12;44.91
70127;BME280;57491;42.694;23.314;2022-07-29T06:55:50;95264.41;;;27.13;45.21
70127;BME280;57491;42.694;23.314;2022-07-29T06:58:17;95261.97;;;27.16;46.14
70127;BME280;57491;42.694;23.314;2022-07-29T07:00:47;95265.41;;;27.22;45.02
70127;BME280;57491;42.694;23.314;2022-07-29T07:03:15;95244.53;;;26.90;45.07
70127;BME280;57491;42.694;23.314;2022-07-29T07:05:42;95253.03;;;27.36;44.53
70127;BME280;57491;42.694;23.314;2022-07-29T07:08:10;95252.59;;;27.58;43.82
70127;BME280;57491;42.694;23.314;2022-07-29T07:10:37;95246.41;;;27.91;42.67
70127;BME280;57491;42.694;23.314;2022-07-29T07:13:05;95220.88;;;28.04;41.93
70127;BME280;57491;42.694;23.314;2022-07-29T07:15:32;95255.81;;;28.36;41.39
70127;BME280;57491;42.694;23.314;2022-07-29T07:18:00;95248.28;;;28.38;41.44
70127;BME280;57491;42.694;23.314;2022-07-29T07:20:28;95257.69;;;28.59;40.83
70127;BME280;57491;42.694;23.314;2022-07-29T07:22:55;95235.16;;;28.60;40.35
70127;BME280;57491;42.694;23.314;2022-07-29T07:25:25;95256.09;;;28.58;41.02
70127;BME280;57491;42.694;23.314;2022-07-29T07:27:52;95254.81;;;28.32;41.29
70127;BME280;57491;42.694;23.314;2022-07-29T07:30:20;95246.94;;;28.41;41.35
70127;BME280;57491;42.694;23.314;2022-07-29T07:32:47;95245.56;;;28.43;40.74
70127;BME280;57491;42.694;23.314;2022-07-29T07:35:16;95247.47;;;28.61;40.68
70127;BME280;57491;42.694;23.314;2022-07-29T07:37:43;95244.22;;;28.64;39.90
70127;BME280;57491;42.694;23.314;2022-07-29T07:40:10;95240.72;;;28.88;39.57
70127;BME280;57491;42.694;23.314;2022-07-29T07:42:38;95249.81;;;29.24;38.43
70127;BME280;57491;42.694;23.314;2022-07-29T07:45:05;95254.09;;;29.06;39.09
70127;BME280;57491;42.694;23.314;2022-07-29T07:47:34;95241.59;;;28.83;39.30
70127;BME280;57491;42.694;23.314;2022-07-29T07:50:03;95245.50;;;28.72;40.24
70127;BME280;57491;42.694;23.314;2022-07-29T07:52:32;95247.41;;;29.22;38.87
70127;BME280;57491;42.694;23.314;2022-07-29T07:54:59;95239.22;;;29.51;37.97
70127;BME280;57491;42.694;23.314;2022-07-29T07:57:26;95254.31;;;28.91;39.15
70127;BME280;57491;42.694;23.314;2022-07-29T07:59:54;95254.41;;;28.62;39.72
70127;BME280;57491;42.694;23.314;2022-07-29T08:02:21;95243.47;;;29.01;39.81
70127;BME280;57491;42.694;23.314;2022-07-29T08:04:48;95244.75;;;29.41;38.50
70127;BME280;57491;42.694;23.314;2022-07-29T08:07:15;95240.75;;;29.57;38.32
70127;BME280;57491;42.694;23.314;2022-07-29T08:09:43;95207.00;;;29.70;37.45
70127;BME280;57491;42.694;23.314;2022-07-29T08:12:11;95239.25;;;30.11;37.11
70127;BME280;57491;42.694;23.314;2022-07-29T08:14:38;95230.41;;;30.24;36.29
70127;BME280;57491;42.694;23.314;2022-07-29T08:17:05;95240.41;;;30.73;35.56
70127;BME280;57491;42.694;23.314;2022-07-29T08:19:32;95252.63;;;30.93;35.42
70127;BME280;57491;42.694;23.314;2022-07-29T08:21:59;95242.91;;;31.19;35.13
70127;BME280;57491;42.694;23.314;2022-07-29T08:24:26;95247.34;;;30.88;34.31
70127;BME280;57491;42.694;23.314;2022-07-29T08:27:19;95250.25;;;30.78;34.03
70127;BME280;57491;42.694;23.314;2022-07-29T08:29:47;95234.22;;;30.86;34.54
70127;BME280;57491;42.694;23.314;2022-07-29T08:32:14;95230.03;;;30.94;34.50
70127;BME280;57491;42.694;23.314;2022-07-29T08:34:42;95240.53;;;30.41;34.77
70127;BME280;57491;42.694;23.314;2022-07-29T08:37:12;95244.53;;;30.30;35.27
70127;BME280;57491;42.694;23.314;2022-07-29T08:39:39;95241.53;;;30.31;34.75
70127;BME280;57491;42.694;23.314;2022-07-29T08:42:06;95232.97;;;30.70;34.51
70127;BME280;57491;42.694;23.314;2022-07-29T08:44:37;95239.50;;;30.78;33.73
70127;BME280;57491;42.694;23.314;2022-07-29T08:47:05;95226.81;;;30.70;34.50
70127;BME280;57491;42.694;23.314;2022-07-29T08:49:33;95227.03;;;31.31;33.27
70127;BME280;57491;42.694;23.314;2022-07-29T08:52:02;95215.03;;;31.82;32.39
70127;BME280;57491;42.694;23.314;2022-07-29T08:54:29;95226.81;;;32.03;31.67
70127;BME280;57491;42.694;23.314;2022-07-29T08:56:58;95221.31;;;32.08;31.60
70127;BME280;57491;42.694;23.314;2022-07-29T08:59:27;95216.06;;;32.43;30.48
70127;BME280;57491;42.694;23.314;2022-07-29T09:01:57;95221.88;;;32.75;30.30
70127;BME280;57491;42.694;23.314;2022-07-29T09:04:27;95226.31;;;32.89;29.48
70127;BME280;57491;42.694;23.314;2022-07-29T09:06:57;95221.72;;;32.98;29.40
70127;BME280;57491;42.694;23.314;2022-07-29T09:09:26;95211.09;;;32.84;29.40
70127;BME280;57491;42.694;23.314;2022-07-29T09:11:53;95211.50;;;32.52;29.77
70127;BME280;57491;42.694;23.314;2022-07-29T09:14:21;95206.19;;;32.69;29.72
70127;BME280;57491;42.694;23.314;2022-07-29T09:16:49;95201.44;;;32.83;29.94
70127;BME280;57491;42.694;23.314;2022-07-29T09:19:23;95201.44;;;33.09;28.77
70127;BME280;57491;42.694;23.314;2022-07-29T09:21:51;95214.59;;;33.10;29.01
70127;BME280;57491;42.694;23.314;2022-07-29T09:27:18;95208.66;;;32.57;29.88
70127;BME280;57491;42.694;23.314;2022-07-29T09:29:46;95220.13;;;32.71;29.20
70127;BME280;57491;42.694;23.314;2022-07-29T09:32:13;95204.16;;;32.92;28.89
70127;BME280;57491;42.694;23.314;2022-07-29T09:34:42;95207.44;;;33.49;27.75
70127;BME280;57491;42.694;23.314;2022-07-29T09:37:09;95204.16;;;33.98;26.99
70127;BME280;57491;42.694;23.314;2022-07-29T09:39:38;95205.69;;;34.46;26.79
70127;BME280;57491;42.694;23.314;2022-07-29T09:42:12;95204.09;;;34.16;26.71
70127;BME280;57491;42.694;23.314;2022-07-29T09:44:44;95194.16;;;34.37;26.74
70127;BME280;57491;42.694;23.314;2022-07-29T09:47:14;95194.72;;;34.51;26.42
70127;BME280;57491;42.694;23.314;2022-07-29T09:49:53;95200.31;;;34.75;25.90
70127;BME280;57491;42.694;23.314;2022-07-29T09:52:24;95186.47;;;34.18;27.29
70127;BME280;57491;42.694;23.314;2022-07-29T09:54:51;95186.22;;;34.61;26.55
70127;BME280;57491;42.694;23.314;2022-07-29T09:57:24;95200.38;;;35.29;25.73
70127;BME280;57491;42.694;23.314;2022-07-29T10:00:04;95191.16;;;34.59;26.96
70127;BME280;57491;42.694;23.314;2022-07-29T10:02:34;95191.81;;;34.56;26.63
70127;BME280;57491;42.694;23.314;2022-07-29T10:05:05;95180.66;;;35.28;25.67
70127;BME280;57491;42.694;23.314;2022-07-29T10:07:48;95179.03;;;36.05;24.54
70127;BME280;57491;42.694;23.314;2022-07-29T10:10:20;95157.78;;;36.16;24.30
70127;BME280;57491;42.694;23.314;2022-07-29T10:12:55;95162.22;;;36.73;23.33
70127;BME280;57491;42.694;23.314;2022-07-29T10:15:25;95159.00;;;36.95;22.88
70127;BME280;57491;42.694;23.314;2022-07-29T10:17:54;95164.66;;;37.30;22.61
70127;BME280;57491;42.694;23.314;2022-07-29T10:20:25;95161.06;;;37.53;22.85
70127;BME280;57491;42.694;23.314;2022-07-29T10:22:53;95160.00;;;37.30;22.80
70127;BME280;57491;42.694;23.314;2022-07-29T10:25:21;95154.84;;;37.53;22.48
70127;BME280;57491;42.694;23.314;2022-07-29T10:27:49;95130.31;;;37.49;22.38
70127;BME280;57491;42.694;23.314;2022-07-29T10:30:18;95145.97;;;37.40;22.28
70127;BME280;57491;42.694;23.314;2022-07-29T10:35:47;95127.53;;;37.18;22.63
70127;BME280;57491;42.694;23.314;2022-07-29T10:38:45;95139.19;;;36.79;23.09
70127;BME280;57491;42.694;23.314;2022-07-29T10:41:30;95144.19;;;36.40;23.42
70127;BME280;57491;42.694;23.314;2022-07-29T10:44:03;95138.69;;;36.89;22.59
70127;BME280;57491;42.694;23.314;2022-07-29T10:46:35;95128.25;;;37.15;22.41
70127;BME280;57491;42.694;23.314;2022-07-29T10:49:07;95127.19;;;37.79;21.92
70127;BME280;57491;42.694;23.314;2022-07-29T10:51:57;95125.97;;;37.61;21.18
70127;BME280;57491;42.694;23.314;2022-07-29T10:54:42;95129.13;;;37.63;21.11
70127;BME280;57491;42.694;23.314;2022-07-29T10:57:14;95125.88;;;37.88;20.96
70127;BME280;57491;42.694;23.314;2022-07-29T10:59:43;95123.25;;;37.76;21.28
70127;BME280;57491;42.694;23.314;2022-07-29T11:02:45;95116.75;;;37.49;21.99
70127;BME280;57491;42.694;23.314;2022-07-29T11:05:14;95114.59;;;37.55;21.71
70127;BME280;57491;42.694;23.314;2022-07-29T11:08:19;95109.59;;;37.57;21.96
70127;BME280;57491;42.694;23.314;2022-07-29T11:10:49;95106.69;;;37.97;21.42
70127;BME280;57491;42.694;23.314;2022-07-29T11:13:47;95099.47;;;36.71;23.43
70127;BME280;57491;42.694;23.314;2022-07-29T11:16:16;95095.84;;;36.79;22.93
70127;BME280;57491;42.694;23.314;2022-07-29T11:19:20;95093.13;;;37.50;21.80
70127;BME280;57491;42.694;23.314;2022-07-29T11:21:50;95096.56;;;37.63;21.76
70127;BME280;57491;42.694;23.314;2022-07-29T11:24:22;95091.75;;;37.72;21.96
70127;BME280;57491;42.694;23.314;2022-07-29T11:27:15;95096.91;;;38.08;21.03
70127;BME280;57491;42.694;23.314;2022-07-29T11:29:50;95069.50;;;38.32;20.54
70127;BME280;57491;42.694;23.314;2022-07-29T11:32:19;95088.59;;;38.52;20.69
70127;BME280;57491;42.694;23.314;2022-07-29T11:35:18;95089.19;;;38.80;20.73
70127;BME280;57491;42.694;23.314;2022-07-29T11:38:23;95082.13;;;38.40;20.81
70127;BME280;57491;42.694;23.314;2022-07-29T11:41:23;95090.41;;;39.02;20.11
70127;BME280;57491;42.694;23.314;2022-07-29T11:43:51;95065.28;;;39.50;19.93
70127;BME280;57491;42.694;23.314;2022-07-29T11:46:42;95082.69;;;39.91;19.23
70127;BME280;57491;42.694;23.314;2022-07-29T11:49:19;95079.81;;;39.58;19.60
70127;BME280;57491;42.694;23.314;2022-07-29T11:51:51;95077.81;;;38.94;20.57
70127;BME280;57491;42.694;23.314;2022-07-29T11:54:26;95063.34;;;38.16;21.02
70127;BME280;57491;42.694;23.314;2022-07-29T11:56:58;95074.94;;;37.66;21.62
70127;BME280;57491;42.694;23.314;2022-07-29T11:59:26;95034.50;;;37.02;22.14
70127;BME280;57491;42.694;23.314;2022-07-29T12:01:53;95069.31;;;36.32;22.86
70127;BME280;57491;42.694;23.314;2022-07-29T12:04:20;95084.66;;;35.92;23.58
70127;BME280;57491;42.694;23.314;2022-07-29T12:06:50;95062.63;;;35.20;24.36
70127;BME280;57491;42.694;23.314;2022-07-29T12:09:20;95074.44;;;35.40;24.52
70127;BME280;57491;42.694;23.314;2022-07-29T12:11:48;95054.28;;;35.25;24.29
70127;BME280;57491;42.694;23.314;2022-07-29T12:14:26;95056.44;;;34.99;24.00
70127;BME280;57491;42.694;23.314;2022-07-29T12:16:54;95069.31;;;34.81;24.96
70127;BME280;57491;42.694;23.314;2022-07-29T12:19:21;95061.28;;;35.39;24.18
70127;BME280;57491;42.694;23.314;2022-07-29T12:21:49;95060.09;;;35.72;23.64
70127;BME280;57491;42.694;23.314;2022-07-29T12:24:18;95044.84;;;36.04;22.58
70127;BME280;57491;42.694;23.314;2022-07-29T12:26:50;95054.66;;;36.09;23.20
70127;BME280;57491;42.694;23.314;2022-07-29T12:29:18;95061.66;;;36.22;23.19
70127;BME280;57491;42.694;23.314;2022-07-29T12:31:51;95038.66;;;36.16;23.20
70127;BME280;57491;42.694;23.314;2022-07-29T12:34:21;95051.06;;;35.80;23.61
70127;BME280;57491;42.694;23.314;2022-07-29T12:36:49;95053.78;;;35.93;23.69
70127;BME280;57491;42.694;23.314;2022-07-29T12:39:17;95044.41;;;35.90;23.93
70127;BME280;57491;42.694;23.314;2022-07-29T12:41:44;95045.19;;;35.91;23.46
70127;BME280;57491;42.694;23.314;2022-07-29T12:44:11;95046.97;;;35.62;24.33
70127;BME280;57491;42.694;23.314;2022-07-29T12:46:39;95039.13;;;35.69;22.94
70127;BME280;57491;42.694;23.314;2022-07-29T12:49:08;95035.47;;;35.53;24.00
70127;BME280;57491;42.694;23.314;2022-07-29T12:51:36;95045.06;;;35.63;23.41
70127;BME280;57491;42.694;23.314;2022-07-29T12:54:06;95037.50;;;35.44;23.86
70127;BME280;57491;42.694;23.314;2022-07-29T12:56:34;95032.31;;;35.27;24.18
70127;BME280;57491;42.694;23.314;2022-07-29T12:59:11;95023.94;;;35.08;24.33
70127;BME280;57491;42.694;23.314;2022-07-29T13:01:38;95038.44;;;34.49;25.01
70127;BME280;57491;42.694;23.314;2022-07-29T13:04:05;95022.19;;;34.58;24.95
70127;BME280;57491;42.694;23.314;2022-07-29T13:06:36;95023.91;;;34.21;25.65
70127;BME280;57491;42.694;23.314;2022-07-29T13:09:07;95008.56;;;34.13;25.52
70127;BME280;57491;42.694;23.314;2022-07-29T13:11:37;94943.00;;;33.42;26.19
70127;BME280;57491;42.694;23.314;2022-07-29T13:14:05;95014.59;;;34.10;25.71
70127;BME280;57491;42.694;23.314;2022-07-29T13:16:34;95025.50;;;34.14;25.32